Pagrindinis puslapis
METAR-TAF:

METAR-TAF

Oro uostai :

Sonora Municipal Airport

Sonora, Teksasas, Jungtinės Amerikos Valstijos

platuma: 30-35-08N, ilguma: 100-38-54W, Aukštis: 652 m

Dabartinis oras

Ataskaita buvo paskelbta 18 minutes, ne 16:15 UTC
Ramus vėjas
Temperatūra 26°C
Drėgmė 51%
Slėgis 1022 hPa
Matomumas: 16.1 km
Giedras dangus

METAR: KSOA 031615Z AUTO 00000KT 10SM CLR 26/15 A3017 RMK AO2

Laikas: 11:33 (16:33 UTC)

Prognozė

Ataskaita buvo paskelbta 4 valandos ir 51 minutes, ne 11:42 UTC
Prognozė galioja nuo 03 metu 12 UTC su 04 metu 12 UTC
Vėjas 5 kt nuo kintamojo kryptimis
Matomumas: 10 km
Mažai debesys ne aukštis 25000 ft

TAF: KSOA 031142Z 0312/0412 VRB05KT P6SM FEW250

Orai ataskaitas ir orų prognozės (METAR, TAF).

turimą stotys yra geltonos ir raudonos taškus žemėlapyje.

Perkelti pele per norėdami pamatyti stoties vardą.

Tada spustelėkite, norėdami matyti oro stebėjimo ir prognozės.

Norėdami pakeisti žemėlapį: spustelėkite ant žalios mygtukų su juodo kryžiaus žemyn,; žalią mygtuką su brūkšneliu, jei norite nutolinti; arba žalių rodyklių gretimoms žemėlapius.


METAR-TAF: